createdAt,value
2018-11-10T00:01:02.167Z,100332.88
2018-11-10T00:02:06.452Z,100331.55
2018-11-10T00:03:10.500Z,100339.53
2018-11-10T00:04:14.601Z,100341.70
2018-11-10T00:05:19.619Z,100331.55
2018-11-10T00:06:23.687Z,100327.19
2018-11-10T00:07:27.804Z,100324.20
2018-11-10T00:08:31.889Z,100325.05
2018-11-10T00:09:36.058Z,100323.85
2018-11-10T00:10:40.083Z,100318.53
2018-11-10T00:11:44.306Z,100316.84
2018-11-10T00:12:49.022Z,100322.17
2018-11-10T00:13:53.369Z,100305.95
2018-11-10T00:14:57.532Z,100314.84
2018-11-10T00:16:01.647Z,100317.14
2018-11-10T00:17:06.449Z,100315.48
2018-11-10T00:18:10.658Z,100305.33
2018-11-10T00:19:15.328Z,100306.30
2018-11-10T00:20:19.432Z,100306.30
2018-11-10T00:21:23.471Z,100301.14
2018-11-10T00:22:27.745Z,100304.30
2018-11-10T00:23:31.927Z,100304.30
2018-11-10T00:24:35.996Z,100306.60
2018-11-10T00:25:40.088Z,100300.08
2018-11-10T00:26:44.288Z,100304.08
2018-11-10T00:27:48.450Z,100297.94
2018-11-10T00:28:52.761Z,100304.73
2018-11-10T00:29:56.907Z,100302.42
2018-11-10T00:31:01.115Z,100290.58
2018-11-10T00:32:05.893Z,100297.72
2018-11-10T00:33:10.176Z,100292.75
2018-11-10T00:34:14.355Z,100295.58
2018-11-10T00:35:18.487Z,100289.41
2018-11-10T00:36:22.691Z,100287.59
2018-11-10T00:37:26.994Z,100281.91
2018-11-10T00:38:31.122Z,100285.91
2018-11-10T00:39:35.204Z,100279.73
2018-11-10T00:40:39.291Z,100288.08
2018-11-10T00:41:43.371Z,100277.73
2018-11-10T00:42:47.515Z,100286.09
2018-11-10T00:43:51.618Z,100280.63
2018-11-10T00:44:55.716Z,100276.47
2018-11-10T00:45:59.929Z,100274.16
2018-11-10T00:47:04.089Z,100281.49
2018-11-10T00:48:08.271Z,100272.17
2018-11-10T00:49:12.444Z,100276.36
2018-11-10T00:50:16.659Z,100274.89
2018-11-10T00:51:21.866Z,100283.06
2018-11-10T00:52:28.223Z,100281.11
2018-11-10T00:53:32.389Z,100279.12
2018-11-10T00:54:36.444Z,100273.48
2018-11-10T00:55:40.576Z,100273.19
2018-11-10T00:56:44.814Z,100275.19
2018-11-10T00:57:48.887Z,100272.39
2018-11-10T00:58:52.955Z,100273.06
2018-11-10T00:59:57.161Z,100275.59
2018-11-10T01:01:01.406Z,100275.10
2018-11-10T01:02:05.603Z,100270.62
2018-11-10T01:03:09.808Z,100266.45
2018-11-10T01:04:13.890Z,100270.45
2018-11-10T01:05:18.028Z,100268.14
2018-11-10T01:06:22.144Z,100268.14
2018-11-10T01:07:26.353Z,100264.14
2018-11-10T01:08:30.475Z,100262.81
2018-11-10T01:09:34.634Z,100260.14
2018-11-10T01:10:38.702Z,100261.83
2018-11-10T01:11:42.844Z,100264.49
2018-11-10T01:12:47.110Z,100263.30
2018-11-10T01:13:51.139Z,100259.30
2018-11-10T01:14:55.603Z,100257.13
2018-11-10T01:15:59.880Z,100258.95
2018-11-10T01:17:03.980Z,100253.79
2018-11-10T01:18:08.120Z,100256.45
2018-11-10T01:19:12.433Z,100251.13
2018-11-10T01:20:16.497Z,100245.45
2018-11-10T01:21:20.608Z,100239.77
2018-11-10T01:22:24.697Z,100244.61
2018-11-10T01:23:29.247Z,100239.45
2018-11-10T01:24:33.416Z,100242.25
2018-11-10T01:25:37.557Z,100238.42
2018-11-10T01:26:41.670Z,100234.92
2018-11-10T01:27:45.824Z,100245.08
2018-11-10T01:28:49.867Z,100238.56
2018-11-10T01:29:53.976Z,100237.40
2018-11-10T01:30:58.071Z,100236.20
2018-11-10T01:32:02.209Z,100227.05
2018-11-10T01:33:06.224Z,100229.71
2018-11-10T01:34:10.435Z,100231.18
2018-11-10T01:35:14.987Z,100229.01
2018-11-10T01:36:19.046Z,100223.33
2018-11-10T01:37:23.115Z,100225.18
2018-11-10T01:38:27.227Z,100222.16
2018-11-10T01:39:31.266Z,100219.99
2018-11-10T01:40:35.360Z,100220.84
2018-11-10T01:41:39.792Z,100213.83
2018-11-10T01:42:44.410Z,100214.67
2018-11-10T01:43:48.555Z,100205.66
2018-11-10T01:44:52.662Z,100213.52
2018-11-10T01:45:56.752Z,100206.72
2018-11-10T01:47:00.902Z,100211.88
2018-11-10T01:48:05.436Z,100206.06
2018-11-10T01:49:09.500Z,100207.58
2018-11-10T01:50:13.666Z,100209.27
2018-11-10T01:51:17.767Z,100202.11
2018-11-10T01:52:21.833Z,100205.45
2018-11-10T01:53:25.893Z,100200.83
2018-11-10T01:54:30.071Z,100200.52
2018-11-10T01:55:34.340Z,100203.85
2018-11-10T01:56:38.434Z,100200.55
2018-11-10T01:57:43.291Z,100201.72
2018-11-10T01:58:47.409Z,100201.90
2018-11-10T01:59:51.475Z,100195.09
2018-11-10T02:00:55.601Z,100189.59
2018-11-10T02:02:00.856Z,100186.80
2018-11-10T02:03:05.321Z,100183.95
2018-11-10T02:04:09.547Z,100184.66
2018-11-10T02:05:17.392Z,100181.33
2018-11-10T02:06:21.588Z,100183.02
2018-11-10T02:07:25.631Z,100182.03
2018-11-10T02:08:29.759Z,100180.17
2018-11-10T02:09:33.877Z,100176.39
2018-11-10T02:10:38.056Z,100171.38
2018-11-10T02:11:42.158Z,100175.90
2018-11-10T02:12:46.304Z,100179.37
2018-11-10T02:13:50.430Z,100172.05
2018-11-10T02:14:54.621Z,100172.70
2018-11-10T02:15:58.788Z,100164.36
2018-11-10T02:17:02.950Z,100159.34
2018-11-10T02:18:07.140Z,100155.84
2018-11-10T02:19:11.312Z,100156.83
2018-11-10T02:20:16.011Z,100155.49
2018-11-10T02:21:20.089Z,100155.00
2018-11-10T02:22:24.548Z,100149.67
2018-11-10T02:23:28.860Z,100146.66
2018-11-10T02:24:33.127Z,100152.51
2018-11-10T02:25:37.265Z,100147.98
2018-11-10T02:26:41.349Z,100145.67
2018-11-10T02:27:45.516Z,100142.03
2018-11-10T02:28:49.697Z,100141.05
2018-11-10T02:29:54.959Z,100138.70
2018-11-10T02:30:59.348Z,100137.72
2018-11-10T02:32:03.444Z,100140.06
2018-11-10T02:33:07.645Z,100139.08
2018-11-10T02:34:11.778Z,100140.73
2018-11-10T02:35:15.891Z,100138.42
2018-11-10T02:36:20.055Z,100136.77
2018-11-10T02:37:24.178Z,100131.94
2018-11-10T02:38:28.431Z,100128.63
2018-11-10T02:39:32.585Z,100128.46
2018-11-10T02:40:36.712Z,100132.45
2018-11-10T02:41:40.810Z,100124.81
2018-11-10T02:42:45.161Z,100125.48
2018-11-10T02:43:49.346Z,100121.48
2018-11-10T02:44:53.467Z,100111.17
2018-11-10T02:45:57.524Z,100109.70
2018-11-10T02:47:01.610Z,100107.84
2018-11-10T02:48:05.784Z,100108.67
2018-11-10T02:49:09.824Z,100107.34
2018-11-10T02:50:13.967Z,100102.85
2018-11-10T02:51:18.217Z,100102.36
2018-11-10T02:52:22.399Z,100107.20
2018-11-10T02:53:26.488Z,100105.20
2018-11-10T02:54:30.780Z,100102.53
2018-11-10T02:55:34.900Z,100099.23
2018-11-10T02:56:38.945Z,100099.23
2018-11-10T02:57:43.255Z,100104.04
2018-11-10T02:58:47.430Z,100102.56
2018-11-10T02:59:51.512Z,100104.24
2018-11-10T03:00:55.615Z,100099.90
2018-11-10T03:01:59.756Z,100102.42
2018-11-10T03:03:04.020Z,100102.91
2018-11-10T03:04:08.163Z,100101.92
2018-11-10T03:05:12.510Z,100102.28
2018-11-10T03:06:16.543Z,100099.61
2018-11-10T03:07:20.711Z,100096.94
2018-11-10T03:08:24.737Z,100094.63
2018-11-10T03:09:28.971Z,100101.30
2018-11-10T03:10:33.152Z,100098.94
2018-11-10T03:11:37.537Z,100094.94
2018-11-10T03:12:42.108Z,100101.11
2018-11-10T03:13:46.185Z,100096.97
2018-11-10T03:14:50.307Z,100094.30
2018-11-10T03:15:54.620Z,100096.30
2018-11-10T03:16:58.726Z,100084.30
2018-11-10T03:18:02.820Z,100097.00
2018-11-10T03:19:06.952Z,100088.48
2018-11-10T03:20:14.854Z,100089.66
2018-11-10T03:21:18.951Z,100088.33
2018-11-10T03:22:23.065Z,100090.33
2018-11-10T03:23:27.206Z,100086.82
2018-11-10T03:24:31.321Z,100085.34
2018-11-10T03:25:35.452Z,100083.34
2018-11-10T03:26:39.567Z,100076.18
2018-11-10T03:27:43.733Z,100073.37
2018-11-10T03:28:47.846Z,100067.19
2018-11-10T03:29:51.971Z,100072.34
2018-11-10T03:30:56.071Z,100074.03
2018-11-10T03:32:00.162Z,100067.71
2018-11-10T03:33:04.677Z,100060.05
2018-11-10T03:34:08.887Z,100059.04
2018-11-10T03:35:12.975Z,100053.87
2018-11-10T03:36:17.047Z,100049.06
2018-11-10T03:37:21.186Z,100049.06
2018-11-10T03:38:25.302Z,100049.72
2018-11-10T03:39:29.403Z,100047.89
2018-11-10T03:40:33.499Z,100047.89
2018-11-10T03:41:37.683Z,100047.41
2018-11-10T03:42:41.764Z,100045.39
2018-11-10T03:43:45.907Z,100052.41
2018-11-10T03:44:50.039Z,100045.74
2018-11-10T03:45:54.211Z,100047.39
2018-11-10T03:46:58.373Z,100049.07
2018-11-10T03:48:02.536Z,100043.73
2018-11-10T03:49:06.635Z,100041.73
2018-11-10T03:50:11.549Z,100036.73
2018-11-10T03:51:15.731Z,100038.08
2018-11-10T03:52:20.203Z,100036.25
2018-11-10T03:53:24.312Z,100035.08
2018-11-10T03:54:29.217Z,100032.41
2018-11-10T03:55:33.319Z,100029.43
2018-11-10T03:56:37.424Z,100032.41
2018-11-10T03:57:41.506Z,100029.74
2018-11-10T03:58:45.548Z,100031.08
2018-11-10T03:59:49.630Z,100027.08
2018-11-10T04:00:53.711Z,100027.08
2018-11-10T04:01:57.736Z,100028.75
2018-11-10T04:03:01.847Z,100027.42
2018-11-10T04:04:05.966Z,100027.42
2018-11-10T04:05:10.737Z,100020.75
2018-11-10T04:06:14.911Z,100017.09
2018-11-10T04:07:19.116Z,100019.77
2018-11-10T04:08:23.171Z,100018.43
2018-11-10T04:09:27.371Z,100019.23
2018-11-10T04:10:31.412Z,100013.91
2018-11-10T04:11:35.599Z,100003.77
2018-11-10T04:12:39.911Z,100004.07
2018-11-10T04:13:44.034Z,100010.43
2018-11-10T04:14:48.228Z,99999.76
2018-11-10T04:15:52.340Z,100005.59
2018-11-10T04:16:56.759Z,100006.42
2018-11-10T04:18:00.796Z,100001.59
2018-11-10T04:19:05.305Z,100000.07
2018-11-10T04:20:10.250Z,100003.23
2018-11-10T04:21:14.420Z,99998.73
2018-11-10T04:22:24.888Z,99999.76
2018-11-10T04:23:29.075Z,99996.56
2018-11-10T04:24:33.176Z,99988.56
2018-11-10T04:25:37.412Z,99988.56
2018-11-10T04:26:41.560Z,99986.73
2018-11-10T04:27:45.681Z,99988.41
2018-11-10T04:28:49.795Z,99984.41
2018-11-10T04:29:53.956Z,99983.73
2018-11-10T04:30:58.104Z,99983.23
2018-11-10T04:32:02.347Z,99984.08
2018-11-10T04:33:06.438Z,99979.09
2018-11-10T04:34:10.617Z,99976.42
2018-11-10T04:35:14.826Z,99973.08
2018-11-10T04:36:18.891Z,99976.23
2018-11-10T04:37:23.283Z,99977.08
2018-11-10T04:38:28.016Z,99976.58
2018-11-10T04:39:32.155Z,99976.09
2018-11-10T04:40:36.299Z,99978.76
2018-11-10T04:41:40.418Z,99981.77
2018-11-10T04:42:44.533Z,99979.09
2018-11-10T04:43:48.671Z,99986.58
2018-11-10T04:44:52.821Z,99983.41
2018-11-10T04:45:57.535Z,99981.93
2018-11-10T04:47:01.690Z,99978.42
2018-11-10T04:48:05.883Z,99978.42
2018-11-10T04:49:10.126Z,99976.10
2018-11-10T04:50:14.371Z,99982.09
2018-11-10T04:51:18.443Z,99976.75
2018-11-10T04:52:22.458Z,99985.25
2018-11-10T04:53:27.603Z,99982.09
2018-11-10T04:54:32.444Z,99980.08
2018-11-10T04:55:36.500Z,99982.75
2018-11-10T04:56:40.641Z,99980.92
2018-11-10T04:57:44.751Z,99983.28
2018-11-10T04:58:49.006Z,99991.09
2018-11-10T04:59:53.082Z,99985.76
2018-11-10T05:00:57.180Z,99982.10
2018-11-10T05:02:01.292Z,99986.95
2018-11-10T05:03:05.711Z,99980.77
2018-11-10T05:04:10.024Z,99989.92
2018-11-10T05:05:14.136Z,99991.60
2018-11-10T05:06:18.260Z,99990.77
2018-11-10T05:07:22.476Z,99984.44
2018-11-10T05:08:26.515Z,99992.44
2018-11-10T05:09:30.636Z,99985.28
2018-11-10T05:10:34.697Z,99982.11
2018-11-10T05:11:38.743Z,99976.77
2018-11-10T05:12:42.867Z,99983.45
2018-11-10T05:13:47.027Z,99986.92
2018-11-10T05:14:51.097Z,99981.09
2018-11-10T05:15:55.151Z,99978.42
2018-11-10T05:16:59.576Z,99975.26
2018-11-10T05:18:03.596Z,99982.77
2018-11-10T05:19:07.682Z,99981.44
2018-11-10T05:20:11.889Z,99980.94
2018-11-10T05:21:15.994Z,99987.11
2018-11-10T05:22:20.116Z,99993.44
2018-11-10T05:23:24.220Z,99990.59
2018-11-10T05:24:28.524Z,99987.11
2018-11-10T05:25:32.611Z,99990.28
2018-11-10T05:26:36.759Z,99990.77
2018-11-10T05:27:41.038Z,99994.78
2018-11-10T05:28:45.223Z,99994.13
2018-11-10T05:29:49.306Z,99995.61
2018-11-10T05:30:53.517Z,99992.77
2018-11-10T05:31:57.600Z,99991.94
2018-11-10T05:33:01.769Z,99991.28
2018-11-10T05:34:06.571Z,99990.44
2018-11-10T05:35:10.648Z,99988.77
2018-11-10T05:36:14.869Z,99981.44
2018-11-10T05:37:18.985Z,99974.77
2018-11-10T05:38:23.250Z,99978.42
2018-11-10T05:39:27.317Z,99984.75
2018-11-10T05:40:31.319Z,99983.10
2018-11-10T05:41:35.492Z,99985.77
2018-11-10T05:42:39.927Z,99984.09
2018-11-10T05:43:44.071Z,99988.59
2018-11-10T05:44:48.231Z,99985.58
2018-11-10T05:45:52.314Z,99994.08
2018-11-10T05:46:56.402Z,99992.92
2018-11-10T05:48:00.455Z,99988.75
2018-11-10T05:49:04.548Z,99993.75
2018-11-10T05:50:09.303Z,99991.75
2018-11-10T05:51:13.498Z,99987.75
2018-11-10T05:52:17.603Z,99983.91
2018-11-10T05:53:21.683Z,99986.57
2018-11-10T05:54:25.797Z,99982.55
2018-11-10T05:55:29.870Z,99989.57
2018-11-10T05:56:33.888Z,99993.57
2018-11-10T05:57:38.218Z,99988.38
2018-11-10T05:58:42.327Z,99989.90
2018-11-10T05:59:46.394Z,99984.71
2018-11-10T06:00:50.447Z,99987.91
2018-11-10T06:01:54.599Z,99988.05
2018-11-10T06:02:58.673Z,99992.55
2018-11-10T06:04:02.692Z,99989.72
2018-11-10T06:05:06.907Z,99985.06
2018-11-10T06:06:10.996Z,99985.20
2018-11-10T06:07:15.244Z,99987.53
2018-11-10T06:08:19.285Z,99987.70
2018-11-10T06:09:23.489Z,99986.37
2018-11-10T06:10:27.540Z,99985.53
2018-11-10T06:11:31.594Z,99986.87
2018-11-10T06:12:35.937Z,99988.70
2018-11-10T06:13:40.487Z,99988.35
2018-11-10T06:14:44.632Z,99984.88
2018-11-10T06:15:48.688Z,99980.88
2018-11-10T06:16:52.841Z,99982.36
2018-11-10T06:17:57.092Z,99975.69
2018-11-10T06:19:01.334Z,99985.37
2018-11-10T06:20:06.774Z,99976.37
2018-11-10T06:21:11.007Z,99980.02
2018-11-10T06:22:15.167Z,99981.84
2018-11-10T06:23:19.298Z,99982.03
2018-11-10T06:24:23.356Z,99984.34
2018-11-10T06:25:27.440Z,99977.34
2018-11-10T06:26:31.739Z,99983.16
2018-11-10T06:27:36.760Z,99980.67
2018-11-10T06:28:40.997Z,99978.84
2018-11-10T06:29:51.908Z,99978.16
2018-11-10T06:30:56.007Z,99982.65
2018-11-10T06:32:00.238Z,99973.00
2018-11-10T06:33:04.315Z,99973.00
2018-11-10T06:34:08.404Z,99978.66
2018-11-10T06:35:12.653Z,99975.67
2018-11-10T06:36:16.808Z,99969.84
2018-11-10T06:37:20.976Z,99975.67
2018-11-10T06:38:25.093Z,99977.16
2018-11-10T06:39:29.192Z,99976.31
2018-11-10T06:40:33.342Z,99978.31
2018-11-10T06:41:37.526Z,99981.47
2018-11-10T06:42:42.257Z,99979.65
2018-11-10T06:43:46.357Z,99977.97
2018-11-10T06:44:50.488Z,99977.63
2018-11-10T06:45:55.137Z,99984.29
2018-11-10T06:46:59.212Z,99983.45
2018-11-10T06:48:03.197Z,99986.95
2018-11-10T06:49:07.708Z,99996.28
2018-11-10T06:50:12.187Z,99986.26
2018-11-10T06:51:16.337Z,99990.26
2018-11-10T06:52:20.646Z,99987.94
2018-11-10T06:53:24.972Z,99994.61
2018-11-10T06:54:29.125Z,99994.11
2018-11-10T06:55:33.178Z,99984.78
2018-11-10T06:56:37.266Z,99995.45
2018-11-10T06:57:41.366Z,99988.29
2018-11-10T06:58:45.490Z,99988.29
2018-11-10T06:59:49.696Z,99988.14
2018-11-10T07:00:53.844Z,99994.66
2018-11-10T07:01:58.088Z,99994.16
2018-11-10T07:03:02.224Z,99992.31
2018-11-10T07:04:06.439Z,99993.64
2018-11-10T07:05:11.350Z,99995.99
2018-11-10T07:06:15.610Z,99999.98
2018-11-10T07:07:19.742Z,99996.62
2018-11-10T07:08:23.905Z,100000.28
2018-11-10T07:09:28.046Z,99998.95
2018-11-10T07:10:32.019Z,100003.44
2018-11-10T07:11:36.334Z,100004.77
2018-11-10T07:12:40.536Z,100005.61
2018-11-10T07:13:44.633Z,100003.94
2018-11-10T07:14:48.788Z,100011.93
2018-11-10T07:15:53.004Z,100010.25
2018-11-10T07:16:57.047Z,100010.25
2018-11-10T07:18:01.516Z,100015.58
2018-11-10T07:19:05.693Z,100013.94
2018-11-10T07:20:09.781Z,100020.59
2018-11-10T07:21:13.913Z,100024.59
2018-11-10T07:22:18.023Z,100019.27
2018-11-10T07:23:22.328Z,100024.74
2018-11-10T07:24:26.462Z,100019.41
2018-11-10T07:25:30.578Z,100017.59
2018-11-10T07:26:34.759Z,100023.27
2018-11-10T07:27:38.897Z,100023.58
2018-11-10T07:28:43.068Z,100028.91
2018-11-10T07:29:47.253Z,100028.91
2018-11-10T07:30:51.459Z,100034.94
2018-11-10T07:31:55.608Z,100029.61
2018-11-10T07:32:59.819Z,100026.59
2018-11-10T07:34:03.873Z,100028.27
2018-11-10T07:35:08.660Z,100024.63
2018-11-10T07:36:12.828Z,100033.80
2018-11-10T07:37:17.033Z,100019.98
2018-11-10T07:38:21.064Z,100020.30
2018-11-10T07:39:25.172Z,100016.64
2018-11-10T07:40:29.219Z,100027.66
2018-11-10T07:41:33.342Z,100017.83
2018-11-10T07:42:37.380Z,100028.81
2018-11-10T07:43:41.485Z,100025.30
2018-11-10T07:44:45.632Z,100030.14
2018-11-10T07:45:49.839Z,100019.48
2018-11-10T07:46:53.924Z,100028.31
2018-11-10T07:47:58.090Z,100026.98
2018-11-10T07:49:02.280Z,100024.31
2018-11-10T07:50:07.505Z,100025.16
2018-11-10T07:51:11.832Z,100023.97
2018-11-10T07:52:15.801Z,100025.66
2018-11-10T07:53:20.191Z,100030.64
2018-11-10T07:54:24.317Z,100026.64
2018-11-10T07:55:28.380Z,100025.66
2018-11-10T07:56:32.440Z,100027.48
2018-11-10T07:57:36.668Z,100039.33
2018-11-10T07:58:40.861Z,100030.98
2018-11-10T07:59:45.082Z,100034.98
2018-11-10T08:00:49.107Z,100042.00
2018-11-10T08:01:53.180Z,100034.34
2018-11-10T08:02:57.320Z,100034.84
2018-11-10T08:04:01.471Z,100036.66
2018-11-10T08:05:05.914Z,100034.66
2018-11-10T08:06:10.160Z,100035.00
2018-11-10T08:07:14.212Z,100035.35
2018-11-10T08:08:18.338Z,100034.33
2018-11-10T08:09:22.470Z,100035.67
2018-11-10T08:10:26.604Z,100040.67
2018-11-10T08:11:30.897Z,100043.69
2018-11-10T08:12:35.197Z,100038.70
2018-11-10T08:13:39.296Z,100038.03
2018-11-10T08:14:43.377Z,100037.05
2018-11-10T08:15:47.544Z,100036.05
2018-11-10T08:16:51.690Z,100042.89
2018-11-10T08:17:55.736Z,100041.88
2018-11-10T08:19:00.024Z,100041.88
2018-11-10T08:20:04.284Z,100035.20
2018-11-10T08:21:08.724Z,100035.05
2018-11-10T08:22:12.772Z,100038.56
2018-11-10T08:23:17.147Z,100038.56
2018-11-10T08:24:21.396Z,100041.72
2018-11-10T08:25:25.527Z,100034.06
2018-11-10T08:26:29.742Z,100039.41
2018-11-10T08:27:33.832Z,100033.23
2018-11-10T08:28:38.212Z,100035.05
2018-11-10T08:29:42.375Z,100039.05
2018-11-10T08:30:46.399Z,100042.07
2018-11-10T08:31:50.433Z,100046.06
2018-11-10T08:32:54.570Z,100048.55
2018-11-10T08:33:58.684Z,100045.74
2018-11-10T08:35:03.595Z,100045.74
2018-11-10T08:36:07.700Z,100048.23
2018-11-10T08:37:11.920Z,100046.75
2018-11-10T08:38:16.029Z,100048.40
2018-11-10T08:39:20.233Z,100047.06
2018-11-10T08:40:24.454Z,100039.75
2018-11-10T08:41:28.607Z,100043.27
2018-11-10T08:42:32.683Z,100042.77
2018-11-10T08:43:36.773Z,100044.91
2018-11-10T08:44:40.973Z,100048.41
2018-11-10T08:45:45.228Z,100050.44
2018-11-10T08:46:49.323Z,100053.11
2018-11-10T08:47:53.423Z,100046.75
2018-11-10T08:48:57.522Z,100055.10
2018-11-10T08:50:01.617Z,100059.77
2018-11-10T08:51:06.057Z,100057.09
2018-11-10T08:52:10.177Z,100062.78
2018-11-10T08:53:14.282Z,100054.43
2018-11-10T08:54:18.378Z,100055.76
2018-11-10T08:55:22.546Z,100062.95
2018-11-10T08:56:26.624Z,100069.10
2018-11-10T08:57:30.896Z,100066.12
2018-11-10T08:58:35.204Z,100066.78
2018-11-10T08:59:39.233Z,100059.77
2018-11-10T09:00:43.438Z,100059.77
2018-11-10T09:01:47.678Z,100061.94
2018-11-10T09:02:52.077Z,100067.62
2018-11-10T09:03:56.132Z,100069.80
2018-11-10T09:05:00.354Z,100063.13
2018-11-10T09:06:04.445Z,100066.11
2018-11-10T09:07:08.573Z,100068.77
2018-11-10T09:08:12.686Z,100068.45
2018-11-10T09:09:16.764Z,100074.11
2018-11-10T09:10:20.842Z,100066.45
2018-11-10T09:11:25.019Z,100068.97
2018-11-10T09:12:29.056Z,100065.28
2018-11-10T09:13:33.158Z,100071.95
2018-11-10T09:14:37.374Z,100066.12
2018-11-10T09:15:41.410Z,100071.80
2018-11-10T09:16:45.546Z,100074.47
2018-11-10T09:17:49.896Z,100072.64
2018-11-10T09:18:54.015Z,100073.80
2018-11-10T09:19:58.517Z,100074.14
2018-11-10T09:21:02.640Z,100076.31
2018-11-10T09:22:07.663Z,100078.80
2018-11-10T09:23:11.768Z,100076.14
2018-11-10T09:24:15.874Z,100072.97
2018-11-10T09:25:20.071Z,100072.48
2018-11-10T09:26:24.706Z,100069.31
2018-11-10T09:27:28.827Z,100072.64
2018-11-10T09:28:33.025Z,100070.32
2018-11-10T09:29:37.161Z,100067.50
2018-11-10T09:30:41.333Z,100064.16
2018-11-10T09:31:45.336Z,100069.00
2018-11-10T09:32:49.537Z,100065.84
2018-11-10T09:33:53.628Z,100071.84
2018-11-10T09:34:57.881Z,100069.52
2018-11-10T09:36:02.310Z,100065.82
2018-11-10T09:37:06.624Z,100070.17
2018-11-10T09:38:10.806Z,100069.18
2018-11-10T09:39:14.992Z,100068.50
2018-11-10T09:40:19.158Z,100072.85
2018-11-10T09:41:23.360Z,100072.17
2018-11-10T09:42:27.469Z,100073.86
2018-11-10T09:43:31.515Z,100074.20
2018-11-10T09:44:35.704Z,100079.85
2018-11-10T09:45:39.885Z,100078.86
2018-11-10T09:46:44.029Z,100079.20
2018-11-10T09:47:48.367Z,100076.36
2018-11-10T09:48:52.443Z,100082.04
2018-11-10T09:49:56.621Z,100087.20
2018-11-10T09:51:00.764Z,100083.53
2018-11-10T09:52:04.849Z,100088.23
2018-11-10T09:53:09.135Z,100082.89
2018-11-10T09:54:13.622Z,100084.23
2018-11-10T09:55:18.293Z,100089.38
2018-11-10T09:56:22.453Z,100083.55
2018-11-10T09:57:26.491Z,100081.88
2018-11-10T09:58:30.892Z,100079.55
2018-11-10T09:59:35.088Z,100079.72
2018-11-10T10:00:39.246Z,100080.38
2018-11-10T10:01:43.472Z,100086.55
2018-11-10T10:02:47.925Z,100084.23
2018-11-10T10:03:51.724Z,100082.55
2018-11-10T10:04:55.859Z,100081.37
2018-11-10T10:06:00.022Z,100079.55
2018-11-10T10:07:05.015Z,100083.39
2018-11-10T10:08:09.224Z,100078.37
2018-11-10T10:09:13.273Z,100080.89
2018-11-10T10:10:18.138Z,100077.72
2018-11-10T10:11:22.226Z,100073.22
2018-11-10T10:12:26.708Z,100072.54
2018-11-10T10:13:30.836Z,100074.22
2018-11-10T10:14:35.003Z,100074.06
2018-11-10T10:15:39.198Z,100069.91
2018-11-10T10:16:43.382Z,100068.58
2018-11-10T10:17:47.689Z,100076.93
2018-11-10T10:18:51.936Z,100074.76
2018-11-10T10:19:56.070Z,100072.92
2018-11-10T10:21:00.245Z,100072.92
2018-11-10T10:22:04.632Z,100071.90
2018-11-10T10:23:08.821Z,100073.58
2018-11-10T10:24:13.468Z,100073.39
2018-11-10T10:25:18.179Z,100067.55
2018-11-10T10:26:22.297Z,100065.23
2018-11-10T10:27:26.443Z,100061.03
2018-11-10T10:28:30.581Z,100059.05
2018-11-10T10:29:34.687Z,100067.41
2018-11-10T10:30:38.968Z,100061.53
2018-11-10T10:31:43.200Z,100061.88
2018-11-10T10:32:48.230Z,100059.21
2018-11-10T10:33:52.609Z,100064.40
2018-11-10T10:34:56.980Z,100070.39
2018-11-10T10:36:01.002Z,100065.89
2018-11-10T10:37:05.823Z,100068.56
2018-11-10T10:38:11.242Z,100063.56
2018-11-10T10:39:15.548Z,100072.23
2018-11-10T10:40:19.914Z,100070.90
2018-11-10T10:41:23.988Z,100076.05
2018-11-10T10:42:28.075Z,100081.39
2018-11-10T10:43:32.288Z,100074.22
2018-11-10T10:44:36.560Z,100077.92
2018-11-10T10:45:41.253Z,100080.41
2018-11-10T10:46:45.346Z,100075.06
2018-11-10T10:47:49.399Z,100079.25
2018-11-10T10:48:53.611Z,100078.23
2018-11-10T10:49:57.586Z,100084.91
2018-11-10T10:51:02.492Z,100084.07
2018-11-10T10:52:06.642Z,100082.23
2018-11-10T10:53:10.779Z,100079.56
2018-11-10T10:54:15.250Z,100081.24
2018-11-10T10:55:26.031Z,100075.06
2018-11-10T10:56:30.280Z,100074.56
2018-11-10T10:57:35.872Z,100070.06
2018-11-10T10:58:40.041Z,100075.22
2018-11-10T10:59:44.127Z,100070.90
2018-11-10T11:00:53.660Z,100069.56
2018-11-10T11:02:03.111Z,100076.55
2018-11-10T11:03:15.104Z,100073.88
2018-11-10T11:04:24.375Z,100072.55
2018-11-10T11:05:33.905Z,100074.72
2018-11-10T11:06:38.003Z,100069.56
2018-11-10T11:07:42.274Z,100072.05
2018-11-10T11:08:46.487Z,100069.06
2018-11-10T11:09:50.547Z,100071.20
2018-11-10T11:10:54.720Z,100075.75
2018-11-10T11:11:58.803Z,100071.40
2018-11-10T11:13:02.948Z,100074.91
2018-11-10T11:14:07.392Z,100062.54
2018-11-10T11:15:11.640Z,100066.55
2018-11-10T11:16:16.039Z,100067.05
2018-11-10T11:17:20.350Z,100068.56
2018-11-10T11:18:24.547Z,100065.55
2018-11-10T11:19:28.642Z,100066.23
2018-11-10T11:20:32.827Z,100072.23
2018-11-10T11:21:37.488Z,100069.74
2018-11-10T11:22:41.872Z,100063.90
2018-11-10T11:23:46.063Z,100066.06
2018-11-10T11:24:50.174Z,100063.23
2018-11-10T11:25:54.337Z,100067.40
2018-11-10T11:26:58.595Z,100062.73
2018-11-10T11:28:02.792Z,100066.89
2018-11-10T11:29:06.916Z,100063.69
2018-11-10T11:30:10.957Z,100069.21
2018-11-10T11:31:15.108Z,100058.69
2018-11-10T11:32:19.157Z,100061.85
2018-11-10T11:33:23.217Z,100060.20
2018-11-10T11:34:27.399Z,100062.03
2018-11-10T11:35:32.139Z,100066.69
2018-11-10T11:36:36.285Z,100063.21
2018-11-10T11:37:41.173Z,100062.52
2018-11-10T11:38:45.440Z,100062.52
2018-11-10T11:39:49.572Z,100061.19
2018-11-10T11:40:53.852Z,100058.17
2018-11-10T11:41:58.037Z,100056.84
2018-11-10T11:43:02.076Z,100056.84
2018-11-10T11:44:06.718Z,100060.19
2018-11-10T11:45:11.822Z,100057.02
2018-11-10T11:46:16.430Z,100056.68
2018-11-10T11:47:20.702Z,100057.17
2018-11-10T11:48:24.757Z,100050.50
2018-11-10T11:49:28.876Z,100050.50
2018-11-10T11:50:33.329Z,100048.84
2018-11-10T11:51:37.355Z,100049.34
2018-11-10T11:52:42.022Z,100042.83
2018-11-10T11:53:46.145Z,100042.52
2018-11-10T11:54:50.357Z,100045.33
2018-11-10T11:55:54.442Z,100045.83
2018-11-10T11:56:58.564Z,100044.18
2018-11-10T11:58:02.837Z,100039.34
2018-11-10T11:59:06.836Z,100045.52
2018-11-10T12:00:13.808Z,100041.83
2018-11-10T12:01:17.913Z,100041.17
2018-11-10T12:02:22.230Z,100042.52
2018-11-10T12:03:26.186Z,100036.48
2018-11-10T12:04:30.659Z,100033.32
2018-11-10T12:05:34.657Z,100031.98
2018-11-10T12:06:38.741Z,100037.33
2018-11-10T12:07:43.030Z,100033.50
2018-11-10T12:08:47.178Z,100029.16
2018-11-10T12:09:51.353Z,100030.48
2018-11-10T12:10:55.459Z,100033.80
2018-11-10T12:11:59.618Z,100033.31
2018-11-10T12:13:03.788Z,100030.98
2018-11-10T12:14:07.904Z,100029.16
2018-11-10T12:15:13.408Z,100028.97
2018-11-10T12:16:27.197Z,100027.98
2018-11-10T12:17:21.590Z,100024.47
2018-11-10T12:18:25.681Z,100026.15